createdAt,value
2018-01-10T00:00:28.292Z,26.7
2018-01-10T00:01:28.512Z,26.7
2018-01-10T00:02:28.336Z,26.7
2018-01-10T00:03:30.501Z,26.7
2018-01-10T00:04:28.439Z,26.8
2018-01-10T00:05:28.487Z,26.7
2018-01-10T00:06:28.503Z,26.7
2018-01-10T00:07:30.709Z,26.7
2018-01-10T00:08:30.784Z,26.7
2018-01-10T00:09:28.745Z,26.7
2018-01-10T00:10:30.650Z,26.7
2018-01-10T00:11:30.901Z,26.7
2018-01-10T00:12:28.849Z,26.7
2018-01-10T00:13:31.039Z,26.7
2018-01-10T00:14:29.226Z,26.7
2018-01-10T00:15:28.952Z,26.7
2018-01-10T00:16:29.025Z,26.7
2018-01-10T00:17:31.171Z,26.8
2018-01-10T00:18:31.204Z,26.7
2018-01-10T00:19:29.226Z,26.7
2018-01-10T00:20:31.080Z,26.7
2018-01-10T00:21:31.343Z,26.7
2018-01-10T00:22:31.161Z,26.7
2018-01-10T00:23:31.188Z,26.7
2018-01-10T00:24:31.412Z,26.7
2018-01-10T00:25:29.313Z,26.7
2018-01-10T00:26:31.526Z,26.7
2018-01-10T00:27:29.411Z,26.8
2018-01-10T00:28:29.617Z,26.7
2018-01-10T00:29:29.478Z,26.7
2018-01-10T00:30:29.672Z,26.7
2018-01-10T00:31:31.379Z,26.8
2018-01-10T00:32:31.669Z,26.8
2018-01-10T00:33:29.584Z,26.8
2018-01-10T00:34:29.753Z,26.7
2018-01-10T00:35:31.723Z,26.7
2018-01-10T00:36:31.825Z,26.8
2018-01-10T00:37:31.789Z,26.7
2018-01-10T00:38:29.843Z,26.7
2018-01-10T00:39:29.703Z,26.7
2018-01-10T00:40:31.884Z,26.7
2018-01-10T00:41:31.900Z,26.7
2018-01-10T00:42:31.998Z,26.7
2018-01-10T00:43:29.961Z,26.7
2018-01-10T00:44:30.037Z,26.7
2018-01-10T00:45:30.275Z,26.7
2018-01-10T00:46:30.125Z,26.7
2018-01-10T00:47:30.112Z,26.7
2018-01-10T00:48:32.154Z,26.8
2018-01-10T00:49:32.150Z,26.7
2018-01-10T00:50:32.370Z,26.8
2018-01-10T00:51:30.444Z,26.8
2018-01-10T00:52:30.519Z,26.8
2018-01-10T00:53:32.526Z,26.8
2018-01-10T00:54:32.624Z,26.8
2018-01-10T00:55:30.497Z,26.8
2018-01-10T00:56:30.573Z,26.7
2018-01-10T00:57:30.913Z,26.7
2018-01-10T00:58:30.801Z,26.7
2018-01-10T00:59:30.971Z,26.7
2018-01-10T01:00:33.002Z,26.7
2018-01-10T01:01:30.933Z,26.7
2018-01-10T01:02:31.041Z,26.7
2018-01-10T01:03:31.122Z,26.7
2018-01-10T01:04:31.157Z,26.7
2018-01-10T01:05:31.199Z,26.8
2018-01-10T01:06:33.103Z,26.7
2018-01-10T01:07:33.371Z,26.8
2018-01-10T01:08:33.438Z,26.8
2018-01-10T01:09:31.342Z,26.8
2018-01-10T01:10:31.563Z,26.8
2018-01-10T01:11:31.633Z,26.8
2018-01-10T01:12:33.583Z,26.8
2018-01-10T01:13:33.574Z,26.8
2018-01-10T01:14:31.441Z,26.7
2018-01-10T01:15:31.535Z,26.7
2018-01-10T01:16:32.275Z,26.7
2018-01-10T01:17:31.550Z,26.7
2018-01-10T01:18:31.603Z,26.8
2018-01-10T01:19:31.596Z,26.7
2018-01-10T01:20:31.729Z,26.8
2018-01-10T01:21:31.993Z,26.7
2018-01-10T01:22:35.131Z,26.8
2018-01-10T01:23:34.599Z,26.7
2018-01-10T01:24:32.158Z,26.8
2018-01-10T01:25:32.004Z,26.8
2018-01-10T01:26:33.907Z,26.8
2018-01-10T01:27:32.301Z,26.8
2018-01-10T01:28:32.354Z,26.8
2018-01-10T01:29:34.264Z,26.8
2018-01-10T01:30:34.097Z,26.8
2018-01-10T01:31:32.434Z,26.8
2018-01-10T01:32:34.198Z,26.8
2018-01-10T01:33:34.420Z,26.8
2018-01-10T01:34:32.328Z,26.8
2018-01-10T01:35:32.329Z,26.8
2018-01-10T01:36:34.575Z,26.8
2018-01-10T01:37:32.508Z,26.8
2018-01-10T01:38:32.911Z,26.8
2018-01-10T01:39:32.664Z,26.8
2018-01-10T01:40:34.863Z,26.8
2018-01-10T01:41:32.831Z,26.8
2018-01-10T01:42:32.839Z,26.8
2018-01-10T01:43:33.117Z,26.8
2018-01-10T01:44:32.988Z,26.8
2018-01-10T01:45:33.081Z,26.8
2018-01-10T01:46:35.301Z,26.8
2018-01-10T01:47:35.335Z,26.8
2018-01-10T01:48:33.287Z,26.8
2018-01-10T01:49:35.447Z,26.8
2018-01-10T01:50:33.380Z,26.8
2018-01-10T01:51:33.411Z,26.8
2018-01-10T01:52:33.636Z,26.8
2018-01-10T01:53:33.669Z,26.8
2018-01-10T01:54:35.674Z,26.8
2018-01-10T01:55:33.597Z,26.8
2018-01-10T01:56:35.557Z,26.8
2018-01-10T01:57:33.749Z,26.8
2018-01-10T01:58:33.730Z,26.8
2018-01-10T01:59:34.060Z,26.8
2018-01-10T02:00:33.848Z,26.8
2018-01-10T02:01:34.115Z,26.8
2018-01-10T02:02:33.964Z,26.8
2018-01-10T02:03:34.068Z,26.8
2018-01-10T02:04:34.106Z,26.8
2018-01-10T02:05:34.257Z,26.8
2018-01-10T02:06:36.354Z,26.8
2018-01-10T02:07:34.358Z,26.8
2018-01-10T02:08:34.564Z,26.8
2018-01-10T02:09:34.615Z,26.8
2018-01-10T02:10:34.422Z,26.8
2018-01-10T02:11:34.536Z,26.8
2018-01-10T02:12:34.587Z,26.8
2018-01-10T02:13:34.590Z,26.8
2018-01-10T02:14:34.880Z,26.8
2018-01-10T02:15:34.690Z,26.8
2018-01-10T02:16:36.921Z,26.8
2018-01-10T02:17:36.978Z,26.8
2018-01-10T02:18:35.145Z,26.8
2018-01-10T02:19:36.899Z,26.8
2018-01-10T02:20:35.204Z,26.8
2018-01-10T02:21:36.918Z,26.8
2018-01-10T02:22:35.053Z,26.8
2018-01-10T02:23:37.328Z,26.8
2018-01-10T02:24:35.198Z,26.8
2018-01-10T02:25:37.117Z,26.8
2018-01-10T02:26:35.201Z,26.8
2018-01-10T02:27:35.472Z,26.8
2018-01-10T02:28:35.295Z,26.8
2018-01-10T02:29:35.332Z,26.8
2018-01-10T02:30:35.423Z,26.8
2018-01-10T02:31:37.283Z,26.8
2018-01-10T02:32:37.350Z,26.8
2018-01-10T02:33:35.470Z,26.8
2018-01-10T02:34:35.508Z,26.8
2018-01-10T02:35:37.650Z,26.8
2018-01-10T02:36:35.634Z,26.8
2018-01-10T02:37:35.610Z,26.8
2018-01-10T02:38:35.625Z,26.8
2018-01-10T02:39:38.206Z,26.8
2018-01-10T02:40:36.003Z,26.8
2018-01-10T02:41:35.875Z,26.8
2018-01-10T02:42:35.882Z,26.8
2018-01-10T02:43:35.918Z,26.8
2018-01-10T02:44:35.934Z,26.8
2018-01-10T02:45:36.181Z,26.8
2018-01-10T02:46:36.244Z,26.8
2018-01-10T02:47:38.261Z,26.8
2018-01-10T02:48:38.240Z,26.8
2018-01-10T02:49:36.150Z,26.8
2018-01-10T02:50:36.164Z,26.8
2018-01-10T02:51:38.187Z,26.8
2018-01-10T02:52:36.283Z,26.8
2018-01-10T02:53:38.388Z,26.8
2018-01-10T02:54:36.484Z,26.8
2018-01-10T02:55:36.505Z,26.8
2018-01-10T02:56:38.272Z,26.8
2018-01-10T02:57:36.429Z,26.8
2018-01-10T02:58:36.434Z,26.8
2018-01-10T02:59:36.462Z,26.8
2018-01-10T03:00:38.462Z,26.8
2018-01-10T03:01:36.619Z,26.8
2018-01-10T03:02:36.675Z,26.8
2018-01-10T03:03:38.882Z,26.8
2018-01-10T03:04:36.837Z,26.8
2018-01-10T03:05:37.034Z,26.8
2018-01-10T03:06:38.771Z,26.8
2018-01-10T03:07:37.062Z,26.8
2018-01-10T03:08:36.925Z,26.8
2018-01-10T03:09:39.009Z,26.8
2018-01-10T03:10:36.923Z,26.8
2018-01-10T03:11:36.969Z,26.8
2018-01-10T03:12:37.023Z,26.8
2018-01-10T03:13:37.066Z,26.8
2018-01-10T03:14:37.312Z,26.8
2018-01-10T03:15:37.426Z,26.8
2018-01-10T03:16:39.430Z,26.8
2018-01-10T03:17:37.363Z,26.8
2018-01-10T03:18:39.387Z,26.8
2018-01-10T03:19:37.679Z,26.8
2018-01-10T03:20:38.175Z,26.8
2018-01-10T03:21:37.820Z,26.8
2018-01-10T03:22:37.621Z,26.8
2018-01-10T03:23:37.662Z,26.8
2018-01-10T03:24:39.829Z,26.8
2018-01-10T03:25:37.768Z,26.8
2018-01-10T03:26:37.802Z,26.8
2018-01-10T03:27:38.071Z,26.8
2018-01-10T03:28:38.035Z,26.8
2018-01-10T03:29:38.135Z,26.8
2018-01-10T03:30:38.029Z,26.8
2018-01-10T03:31:38.410Z,26.8
2018-01-10T03:32:38.129Z,26.8
2018-01-10T03:33:38.385Z,26.8
2018-01-10T03:34:40.370Z,26.8
2018-01-10T03:35:40.212Z,26.8
2018-01-10T03:36:38.319Z,26.8
2018-01-10T03:37:38.626Z,26.8
2018-01-10T03:38:38.459Z,26.8
2018-01-10T03:39:38.653Z,26.8
2018-01-10T03:40:38.544Z,26.8
2018-01-10T03:41:38.792Z,26.8
2018-01-10T03:42:38.638Z,26.8
2018-01-10T03:43:38.943Z,26.8
2018-01-10T03:44:38.794Z,26.8
2018-01-10T03:45:40.756Z,26.8
2018-01-10T03:46:38.888Z,26.8
2018-01-10T03:47:38.891Z,26.8
2018-01-10T03:48:38.978Z,26.8
2018-01-10T03:49:41.243Z,26.8
2018-01-10T03:50:39.389Z,26.8
2018-01-10T03:51:41.324Z,26.8
2018-01-10T03:52:41.342Z,26.8
2018-01-10T03:53:39.456Z,26.8
2018-01-10T03:54:39.299Z,26.8
2018-01-10T03:55:39.393Z,26.8
2018-01-10T03:56:41.561Z,26.8
2018-01-10T03:57:41.432Z,26.8
2018-01-10T03:58:39.474Z,26.8
2018-01-10T03:59:39.505Z,26.9
2018-01-10T04:00:39.582Z,26.8
2018-01-10T04:01:39.640Z,26.8
2018-01-10T04:02:41.829Z,26.8
2018-01-10T04:03:39.883Z,26.8
2018-01-10T04:04:39.730Z,26.8
2018-01-10T04:05:41.735Z,26.9
2018-01-10T04:06:42.001Z,26.9
2018-01-10T04:07:42.051Z,26.9
2018-01-10T04:08:40.198Z,26.9
2018-01-10T04:09:40.211Z,26.9
2018-01-10T04:10:40.236Z,26.9
2018-01-10T04:11:42.006Z,26.9
2018-01-10T04:12:42.260Z,26.9
2018-01-10T04:13:42.264Z,26.9
2018-01-10T04:14:40.363Z,26.9
2018-01-10T04:15:40.230Z,26.9
2018-01-10T04:16:42.433Z,26.9
2018-01-10T04:17:40.271Z,26.9
2018-01-10T04:18:42.455Z,26.9
2018-01-10T04:19:40.552Z,26.9
2018-01-10T04:20:42.514Z,26.9
2018-01-10T04:21:42.292Z,26.9
2018-01-10T04:22:40.595Z,26.9
2018-01-10T04:23:40.386Z,26.9
2018-01-10T04:24:42.360Z,26.9
2018-01-10T04:25:42.454Z,26.8
2018-01-10T04:26:40.580Z,26.8
2018-01-10T04:27:40.843Z,26.8
2018-01-10T04:28:40.711Z,26.8
2018-01-10T04:29:42.867Z,26.9
2018-01-10T04:30:41.020Z,26.8
2018-01-10T04:31:40.906Z,26.9
2018-01-10T04:32:40.957Z,26.8
2018-01-10T04:33:41.178Z,26.8
2018-01-10T04:34:43.190Z,26.8
2018-01-10T04:35:41.102Z,26.8
2018-01-10T04:36:43.254Z,26.9
2018-01-10T04:37:43.285Z,26.9
2018-01-10T04:38:41.268Z,26.9
2018-01-10T04:39:43.455Z,26.9
2018-01-10T04:40:43.424Z,26.9
2018-01-10T04:41:41.334Z,26.9
2018-01-10T04:42:43.473Z,26.9
2018-01-10T04:43:41.419Z,26.9
2018-01-10T04:44:43.651Z,26.9
2018-01-10T04:45:41.573Z,26.9
2018-01-10T04:46:41.843Z,26.9
2018-01-10T04:47:41.620Z,26.9
2018-01-10T04:48:41.965Z,26.9
2018-01-10T04:49:43.997Z,26.9
2018-01-10T04:50:41.906Z,26.9
2018-01-10T04:51:42.098Z,26.9
2018-01-10T04:52:42.150Z,26.9
2018-01-10T04:53:44.115Z,26.9
2018-01-10T04:54:44.194Z,26.9
2018-01-10T04:55:44.249Z,26.9
2018-01-10T04:56:44.223Z,26.9
2018-01-10T04:57:42.098Z,26.9
2018-01-10T04:58:44.274Z,26.9
2018-01-10T04:59:42.308Z,26.9
2018-01-10T05:00:42.209Z,26.9
2018-01-10T05:01:42.418Z,26.9
2018-01-10T05:02:42.248Z,26.9
2018-01-10T05:03:42.341Z,26.9
2018-01-10T05:04:42.650Z,26.9
2018-01-10T05:05:44.682Z,26.9
2018-01-10T05:06:44.636Z,26.9
2018-01-10T05:07:42.865Z,26.9
2018-01-10T05:08:44.634Z,26.9
2018-01-10T05:09:44.969Z,26.9
2018-01-10T05:10:43.049Z,26.9
2018-01-10T05:11:43.059Z,26.9
2018-01-10T05:12:42.951Z,26.9
2018-01-10T05:13:45.170Z,26.9
2018-01-10T05:14:45.126Z,26.9
2018-01-10T05:15:44.993Z,26.9
2018-01-10T05:16:43.290Z,27
2018-01-10T05:17:43.187Z,27.3
2018-01-10T05:18:45.321Z,27.7
2018-01-10T05:19:45.133Z,28
2018-01-10T05:20:43.298Z,28.2
2018-01-10T05:21:45.525Z,28.5
2018-01-10T05:22:43.572Z,28.9
2018-01-10T05:23:43.467Z,29.2
2018-01-10T05:24:43.449Z,29.6
2018-01-10T05:25:43.488Z,29.8
2018-01-10T05:26:45.777Z,29.9
2018-01-10T05:27:43.707Z,30.1
2018-01-10T05:28:43.721Z,30.3
2018-01-10T05:29:43.810Z,30.4
2018-01-10T05:30:43.839Z,30.5
2018-01-10T05:31:44.077Z,30.7
2018-01-10T05:32:43.858Z,30.8
2018-01-10T05:33:45.873Z,30.9
2018-01-10T05:34:46.191Z,30.9
2018-01-10T05:35:44.130Z,30.9
2018-01-10T05:36:44.116Z,30.9
2018-01-10T05:37:46.151Z,30.9
2018-01-10T05:38:46.371Z,31
2018-01-10T05:39:44.674Z,31
2018-01-10T05:40:44.617Z,31.2
2018-01-10T05:41:44.488Z,31.3
2018-01-10T05:42:44.576Z,31.4
2018-01-10T05:43:44.621Z,31.8
2018-01-10T05:44:44.735Z,31.9
2018-01-10T05:45:44.826Z,32
2018-01-10T05:46:44.774Z,32.1
2018-01-10T05:47:46.935Z,32.1
2018-01-10T05:48:44.837Z,32.3
2018-01-10T05:49:47.091Z,32.3
2018-01-10T05:50:44.960Z,32.4
2018-01-10T05:51:45.101Z,32.5
2018-01-10T05:52:45.165Z,32.5
2018-01-10T05:53:45.233Z,32.6
2018-01-10T05:54:45.261Z,32.6
2018-01-10T05:55:45.596Z,32.6
2018-01-10T05:56:47.339Z,32.6
2018-01-10T05:57:45.617Z,32.6
2018-01-10T05:58:47.387Z,32.6
2018-01-10T05:59:47.428Z,32.6
2018-01-10T06:00:47.664Z,32.6
2018-01-10T06:01:45.781Z,32.6
2018-01-10T06:02:47.747Z,32.6
2018-01-10T06:03:45.915Z,32.6
2018-01-10T06:04:45.769Z,32.5
2018-01-10T06:05:45.970Z,32.5
2018-01-10T06:06:46.098Z,32.5
2018-01-10T06:07:45.893Z,32.4
2018-01-10T06:08:46.057Z,32.4
2018-01-10T06:09:46.090Z,32.4
2018-01-10T06:10:46.211Z,32.4
2018-01-10T06:11:46.296Z,32.3
2018-01-10T06:12:46.508Z,32.3
2018-01-10T06:13:48.506Z,32.3
2018-01-10T06:14:46.365Z,32.2
2018-01-10T06:15:46.420Z,32.2
2018-01-10T06:16:46.472Z,32.2
2018-01-10T06:17:46.737Z,32.1
2018-01-10T06:18:46.574Z,32.1
2018-01-10T06:19:48.753Z,32.1
2018-01-10T06:20:46.797Z,32
2018-01-10T06:21:46.861Z,32
2018-01-10T06:22:46.711Z,32
2018-01-10T06:23:46.825Z,31.9
2018-01-10T06:24:46.759Z,31.9
2018-01-10T06:25:47.103Z,31.8
2018-01-10T06:26:46.947Z,31.8
2018-01-10T06:27:47.370Z,31.8
2018-01-10T06:28:47.331Z,31.7
2018-01-10T06:29:47.180Z,31.7
2018-01-10T06:30:49.441Z,31.7
2018-01-10T06:31:49.159Z,31.6
2018-01-10T06:32:47.422Z,31.6
2018-01-10T06:33:49.424Z,31.5
2018-01-10T06:34:47.354Z,31.5
2018-01-10T06:35:49.695Z,31.5
2018-01-10T06:36:47.524Z,31.4
2018-01-10T06:37:49.438Z,31.4
2018-01-10T06:38:49.429Z,31.4
2018-01-10T06:39:47.540Z,31.3
2018-01-10T06:40:49.647Z,31.3
2018-01-10T06:41:47.830Z,31.2
2018-01-10T06:42:47.529Z,31.2
2018-01-10T06:43:49.827Z,31.1
2018-01-10T06:44:47.884Z,31.1
2018-01-10T06:45:47.758Z,31
2018-01-10T06:46:47.997Z,31
2018-01-10T06:47:49.862Z,31
2018-01-10T06:48:48.097Z,30.9
2018-01-10T06:49:48.183Z,30.9
2018-01-10T06:50:48.314Z,30.9
2018-01-10T06:51:48.050Z,30.9
2018-01-10T06:52:50.238Z,30.9
2018-01-10T06:53:50.328Z,30.8
2018-01-10T06:54:48.302Z,30.8
2018-01-10T06:55:48.275Z,30.8
2018-01-10T06:56:48.326Z,30.8
2018-01-10T06:57:50.785Z,30.7
2018-01-10T06:58:50.378Z,30.7
2018-01-10T06:59:48.470Z,30.7
2018-01-10T07:00:48.574Z,30.7
2018-01-10T07:01:50.811Z,30.6
2018-01-10T07:02:48.875Z,30.6
2018-01-10T07:03:48.747Z,30.6
2018-01-10T07:04:48.750Z,30.7
2018-01-10T07:05:51.215Z,30.7
2018-01-10T07:06:50.735Z,30.7
2018-01-10T07:07:49.057Z,30.7
2018-01-10T07:08:49.128Z,30.7
2018-01-10T07:09:49.044Z,30.8
2018-01-10T07:10:48.990Z,30.8
2018-01-10T07:11:49.373Z,30.9
2018-01-10T07:12:49.248Z,30.9
2018-01-10T07:13:49.473Z,31
2018-01-10T07:14:49.266Z,31
2018-01-10T07:15:49.506Z,31
2018-01-10T07:16:49.337Z,31
2018-01-10T07:17:52.406Z,31
2018-01-10T07:18:49.475Z,31.1
2018-01-10T07:19:51.483Z,31.1
2018-01-10T07:20:49.900Z,31.1
2018-01-10T07:21:49.948Z,31
2018-01-10T07:22:49.941Z,30.8
2018-01-10T07:23:51.959Z,30.8
2018-01-10T07:24:49.853Z,30.8
2018-01-10T07:25:49.888Z,30.7
2018-01-10T07:26:52.031Z,30.7
2018-01-10T07:27:50.015Z,30.8
2018-01-10T07:28:54.983Z,30.8
2018-01-10T07:29:49.971Z,30.9
2018-01-10T07:30:50.284Z,31
2018-01-10T07:31:52.069Z,31
2018-01-10T07:32:51.905Z,31
2018-01-10T07:33:53.233Z,31.1
2018-01-10T07:34:52.239Z,31
2018-01-10T07:35:50.958Z,31.1
2018-01-10T07:36:50.855Z,31.1
2018-01-10T07:37:52.391Z,31.2
2018-01-10T07:38:52.326Z,31.4
2018-01-10T07:39:52.405Z,31.5
2018-01-10T07:40:51.209Z,31.5
2018-01-10T07:41:51.061Z,31.5
2018-01-10T07:42:52.741Z,31.6
2018-01-10T07:43:50.605Z,31.6
2018-01-10T07:44:52.838Z,31.6
2018-01-10T07:45:52.905Z,31.6
2018-01-10T07:46:50.657Z,31.6
2018-01-10T07:47:52.832Z,31.6
2018-01-10T07:48:52.844Z,31.6
2018-01-10T07:49:50.977Z,31.5
2018-01-10T07:50:53.081Z,31.5
2018-01-10T07:51:50.841Z,31.5
2018-01-10T07:52:50.945Z,31.5
2018-01-10T07:53:50.904Z,31.5
2018-01-10T07:54:50.948Z,31.5
2018-01-10T07:55:51.538Z,31.5
2018-01-10T07:56:51.280Z,31.6
2018-01-10T07:57:51.292Z,31.6
2018-01-10T07:58:53.144Z,31.6
2018-01-10T07:59:51.443Z,31.7
2018-01-10T08:00:53.305Z,31.7
2018-01-10T08:01:53.839Z,31.7
2018-01-10T08:02:51.580Z,31.7
2018-01-10T08:03:51.458Z,31.8
2018-01-10T08:04:52.515Z,31.8
2018-01-10T08:05:51.686Z,31.9
2018-01-10T08:06:51.777Z,31.9
2018-01-10T08:07:54.013Z,32
2018-01-10T08:08:53.853Z,32
2018-01-10T08:09:51.744Z,32
2018-01-10T08:10:51.948Z,32
2018-01-10T08:11:51.895Z,32
2018-01-10T08:12:51.891Z,32
2018-01-10T08:13:54.673Z,32
2018-01-10T08:14:52.175Z,32
2018-01-10T08:15:54.240Z,32
2018-01-10T08:16:54.405Z,32.1
2018-01-10T08:17:52.294Z,32.1
2018-01-10T08:18:52.405Z,32.2
2018-01-10T08:19:54.578Z,32.2
2018-01-10T08:20:55.749Z,32.2
2018-01-10T08:21:52.699Z,32.2
2018-01-10T08:22:52.718Z,32.2
2018-01-10T08:23:53.187Z,32.2
2018-01-10T08:24:54.513Z,32.2
2018-01-10T08:25:54.570Z,32.2
2018-01-10T08:26:52.802Z,32.4
2018-01-10T08:27:52.835Z,32.4
2018-01-10T08:28:52.884Z,32.4
2018-01-10T08:29:52.913Z,32.3
2018-01-10T08:30:52.826Z,32.3
2018-01-10T08:31:55.010Z,32.2
2018-01-10T08:32:52.902Z,32.1
2018-01-10T08:33:53.152Z,32
2018-01-10T08:34:54.758Z,32
2018-01-10T08:35:53.182Z,31.9
2018-01-10T08:36:53.348Z,31.8
2018-01-10T08:37:53.578Z,31.8
2018-01-10T08:38:55.959Z,31.7
2018-01-10T08:39:55.975Z,31.7
2018-01-10T08:40:53.798Z,31.6
2018-01-10T08:41:54.000Z,31.6
2018-01-10T08:42:56.217Z,31.6
2018-01-10T08:43:56.070Z,31.6
2018-01-10T08:44:53.726Z,31.5
2018-01-10T08:45:56.045Z,31.5
2018-01-10T08:46:53.613Z,31.5
2018-01-10T08:47:55.904Z,31.5
2018-01-10T08:48:54.015Z,31.5
2018-01-10T08:49:55.710Z,31.5
2018-01-10T08:50:53.797Z,31.4
2018-01-10T08:51:56.033Z,31.4
2018-01-10T08:52:55.992Z,31.4
2018-01-10T08:53:56.682Z,31.3
2018-01-10T08:54:53.955Z,31.3
2018-01-10T08:55:56.750Z,31.3
2018-01-10T08:56:54.401Z,31.2
2018-01-10T08:57:54.294Z,31.2
2018-01-10T08:58:54.321Z,31.1
2018-01-10T08:59:54.318Z,31.1
2018-01-10T09:00:54.836Z,31
2018-01-10T09:01:54.399Z,31
2018-01-10T09:02:54.443Z,31
2018-01-10T09:03:54.580Z,31
2018-01-10T09:04:56.655Z,31
2018-01-10T09:05:56.579Z,31
2018-01-10T09:06:54.486Z,31
2018-01-10T09:07:56.485Z,31
2018-01-10T09:08:54.583Z,31
2018-01-10T09:09:54.680Z,31.1
2018-01-10T09:10:57.189Z,31.1
2018-01-10T09:11:54.977Z,31.1
2018-01-10T09:12:56.865Z,31.1
2018-01-10T09:13:54.794Z,31.1
2018-01-10T09:14:57.758Z,31.1
2018-01-10T09:15:57.123Z,31.2
2018-01-10T09:16:55.104Z,31.2
2018-01-10T09:17:57.076Z,31.2
2018-01-10T09:18:57.317Z,31.2
2018-01-10T09:19:55.162Z,31.2
2018-01-10T09:20:55.381Z,31.2
2018-01-10T09:21:57.494Z,31.2
2018-01-10T09:22:57.425Z,31.2
2018-01-10T09:23:57.507Z,31.2
2018-01-10T09:24:56.112Z,31.3
2018-01-10T09:25:57.641Z,31.3
2018-01-10T09:26:55.518Z,31.4
2018-01-10T09:27:55.771Z,31.4
2018-01-10T09:28:57.464Z,31.4
2018-01-10T09:29:55.838Z,31.4
2018-01-10T09:30:55.798Z,31.5
2018-01-10T09:31:56.007Z,31.5
2018-01-10T09:32:56.048Z,31.5
2018-01-10T09:33:55.851Z,31.5
2018-01-10T09:34:56.409Z,31.6
2018-01-10T09:35:55.953Z,31.7
2018-01-10T09:36:58.456Z,31.7
2018-01-10T09:37:56.172Z,31.7
2018-01-10T09:38:58.180Z,31.8
2018-01-10T09:39:56.609Z,31.8
2018-01-10T09:40:58.455Z,31.8
2018-01-10T09:41:58.037Z,31.8
2018-01-10T09:42:56.579Z,31.8
2018-01-10T09:43:58.371Z,31.8
2018-01-10T09:44:56.417Z,31.8
2018-01-10T09:45:59.994Z,31.8
2018-01-10T09:46:58.608Z,31.9
2018-01-10T09:47:58.628Z,31.9
2018-01-10T09:48:57.916Z,32
2018-01-10T09:49:59.869Z,32
2018-01-10T09:50:56.799Z,32
2018-01-10T09:51:56.853Z,32.1
2018-01-10T09:52:58.172Z,32.1
2018-01-10T09:53:57.411Z,32.1
2018-01-10T09:54:57.026Z,32.1
2018-01-10T09:55:57.033Z,32.2
2018-01-10T09:56:59.343Z,32.3
2018-01-10T09:57:59.374Z,32.3
2018-01-10T09:58:59.067Z,32.3
2018-01-10T09:59:59.077Z,32.3
2018-01-10T10:00:57.099Z,32.4
2018-01-10T10:02:00.137Z,32.4
2018-01-10T10:02:57.148Z,32.4
2018-01-10T10:03:59.461Z,32.4
2018-01-10T10:04:59.535Z,32.4
2018-01-10T10:05:57.559Z,32.5
2018-01-10T10:06:57.230Z,32.5
2018-01-10T10:07:57.305Z,32.5
2018-01-10T10:08:59.698Z,32.6
2018-01-10T10:09:59.858Z,32.6
2018-01-10T10:10:57.966Z,32.6
2018-01-10T10:11:59.710Z,32.7
2018-01-10T10:13:01.254Z,32.7
2018-01-10T10:13:59.908Z,32.7
2018-01-10T10:14:57.974Z,32.7
2018-01-10T10:16:01.966Z,32.7
2018-01-10T10:16:58.290Z,32.7
2018-01-10T10:18:00.325Z,32.8
2018-01-10T10:19:00.144Z,32.8
2018-01-10T10:19:58.500Z,32.8
2018-01-10T10:21:00.568Z,32.8
2018-01-10T10:21:58.442Z,32.8
2018-01-10T10:22:59.639Z,32.9
2018-01-10T10:24:00.684Z,32.9
2018-01-10T10:24:58.664Z,32.9
2018-01-10T10:25:58.726Z,32.9
2018-01-10T10:27:00.592Z,32.9
2018-01-10T10:27:59.079Z,32.8
2018-01-10T10:28:58.633Z,32.9
2018-01-10T10:29:58.765Z,32.9
2018-01-10T10:31:00.872Z,32.8
2018-01-10T10:32:01.217Z,32.9
2018-01-10T10:32:58.862Z,32.9
2018-01-10T10:34:01.256Z,32.8
2018-01-10T10:34:59.380Z,32.9
2018-01-10T10:35:59.332Z,32.9
2018-01-10T10:37:01.335Z,32.9
2018-01-10T10:38:01.165Z,32.9
2018-01-10T10:39:01.140Z,32.9
2018-01-10T10:40:02.493Z,32.9
2018-01-10T10:41:01.460Z,33
2018-01-10T10:41:59.303Z,33
2018-01-10T10:43:00.028Z,33
2018-01-10T10:44:01.419Z,33
2018-01-10T10:44:59.453Z,33
2018-01-10T10:45:59.550Z,33.1
2018-01-10T10:46:59.565Z,33.1
2018-01-10T10:48:01.625Z,33.2
2018-01-10T10:49:01.405Z,33.1
2018-01-10T10:49:59.602Z,33.2
2018-01-10T10:50:59.599Z,33.2
2018-01-10T10:51:59.686Z,33.2
2018-01-10T10:53:02.729Z,33.2
2018-01-10T10:53:59.806Z,33.2
2018-01-10T10:55:03.979Z,33.2
2018-01-10T10:56:02.184Z,33.2
2018-01-10T10:57:01.327Z,33.2
2018-01-10T10:58:01.068Z,33.2
2018-01-10T10:59:02.416Z,33.2
2018-01-10T11:00:01.374Z,33.2
2018-01-10T11:01:01.540Z,33.2
2018-01-10T11:02:00.914Z,33.3
2018-01-10T11:03:03.957Z,33.2
2018-01-10T11:04:02.974Z,33.2
2018-01-10T11:05:01.664Z,33.2
2018-01-10T11:06:00.638Z,33.3
2018-01-10T11:07:03.543Z,33.3
2018-01-10T11:08:03.754Z,33.3
2018-01-10T11:09:01.320Z,33.3
2018-01-10T11:10:04.183Z,33.3
2018-01-10T11:11:04.035Z,33.2
2018-01-10T11:12:03.832Z,33.2
2018-01-10T11:13:01.361Z,33.1
2018-01-10T11:14:02.148Z,33.1
2018-01-10T11:15:01.073Z,33.1
2018-01-10T11:16:00.907Z,33.1
2018-01-10T11:17:03.704Z,33
2018-01-10T11:18:02.464Z,33
2018-01-10T11:19:00.875Z,32.9
2018-01-10T11:20:03.004Z,32.8
2018-01-10T11:21:00.925Z,32.8
2018-01-10T11:22:04.522Z,32.7
2018-01-10T11:23:03.571Z,32.6
2018-01-10T11:24:03.818Z,32.5
2018-01-10T11:25:02.358Z,32.4
2018-01-10T11:26:02.150Z,32.3
2018-01-10T11:27:01.969Z,32.3
2018-01-10T11:28:02.643Z,32.2
2018-01-10T11:29:04.182Z,32.1
2018-01-10T11:30:03.320Z,32
2018-01-10T11:31:03.720Z,31.9
2018-01-10T11:32:01.994Z,31.8
2018-01-10T11:33:05.401Z,31.7
2018-01-10T11:34:02.073Z,31.7
2018-01-10T11:35:01.673Z,31.7
2018-01-10T11:36:01.906Z,31.7
2018-01-10T11:37:01.712Z,31.7
2018-01-10T11:38:02.355Z,31.7
2018-01-10T11:39:04.441Z,31.6
2018-01-10T11:40:04.046Z,31.4
2018-01-10T11:41:03.776Z,31.2
2018-01-10T11:42:02.138Z,30.9
2018-01-10T11:43:02.307Z,30.4
2018-01-10T11:44:02.156Z,29.4
2018-01-10T11:45:04.048Z,28.9
2018-01-10T11:46:04.814Z,28.7
2018-01-10T11:47:02.387Z,28.5
2018-01-10T11:48:04.235Z,28.3
2018-01-10T11:49:04.878Z,28.2
2018-01-10T11:50:05.070Z,28.2
2018-01-10T11:51:02.953Z,28.2
2018-01-10T11:52:02.698Z,28.2
2018-01-10T11:53:03.188Z,28.2
2018-01-10T11:54:05.157Z,28.1
2018-01-10T11:55:04.607Z,28
2018-01-10T11:56:02.759Z,27.8
2018-01-10T11:57:04.831Z,27.8
2018-01-10T11:58:04.920Z,27.7
2018-01-10T11:59:04.127Z,27.6
2018-01-10T12:00:04.975Z,27.5
2018-01-10T12:01:06.603Z,27.3
2018-01-10T12:02:05.588Z,27.2
2018-01-10T12:03:03.020Z,27.3
2018-01-10T12:04:02.983Z,27.3
2018-01-10T12:05:05.214Z,27.3
2018-01-10T12:06:05.474Z,27.2
2018-01-10T12:07:03.670Z,27.2
2018-01-10T12:08:05.156Z,27.1
2018-01-10T12:09:03.348Z,27.1
2018-01-10T12:10:04.040Z,27.1
2018-01-10T12:11:03.541Z,27.1
2018-01-10T12:12:05.646Z,27.1
2018-01-10T12:13:03.905Z,27
2018-01-10T12:14:03.675Z,27
2018-01-10T12:15:04.262Z,27
2018-01-10T12:16:03.916Z,27
2018-01-10T12:17:05.601Z,26.9
2018-01-10T12:18:05.527Z,26.9
2018-01-10T12:19:05.680Z,26.9
2018-01-10T12:20:06.979Z,27
2018-01-10T12:21:03.761Z,26.9
2018-01-10T12:22:03.813Z,26.9
2018-01-10T12:23:05.860Z,26.9
2018-01-10T12:24:03.988Z,26.9
2018-01-10T12:25:04.107Z,26.9
2018-01-10T12:26:04.441Z,26.9
2018-01-10T12:27:06.422Z,26.8
2018-01-10T12:28:04.312Z,26.8
2018-01-10T12:29:04.414Z,26.8
2018-01-10T12:30:04.629Z,26.8
2018-01-10T12:31:04.656Z,26.8
2018-01-10T12:32:06.892Z,26.9
2018-01-10T12:33:04.566Z,26.9
2018-01-10T12:34:04.612Z,26.9
2018-01-10T12:35:04.679Z,26.9
2018-01-10T12:36:06.496Z,26.9
2018-01-10T12:37:04.644Z,27
2018-01-10T12:38:04.817Z,27
2018-01-10T12:39:04.819Z,27.1
2018-01-10T12:40:07.136Z,27.1
2018-01-10T12:41:05.235Z,27.2
2018-01-10T12:42:05.181Z,27.3
2018-01-10T12:43:05.276Z,27.4
2018-01-10T12:44:05.123Z,27.5
2018-01-10T12:45:05.234Z,27.6
2018-01-10T12:46:05.289Z,27.6
2018-01-10T12:47:07.350Z,27.6
2018-01-10T12:48:05.726Z,27.7
2018-01-10T12:49:07.678Z,27.7
2018-01-10T12:50:05.612Z,27.7
2018-01-10T12:51:07.755Z,27.8
2018-01-10T12:52:05.831Z,27.5
2018-01-10T12:53:07.588Z,27.5
2018-01-10T12:54:07.971Z,27.7
2018-01-10T12:55:06.115Z,27.8
2018-01-10T12:56:08.079Z,27.9
2018-01-10T12:57:08.199Z,28.1
2018-01-10T12:58:06.150Z,28.1
2018-01-10T12:59:06.169Z,28.2
2018-01-10T13:00:05.992Z,28.3
2018-01-10T13:01:06.131Z,28.3
2018-01-10T13:02:08.327Z,28.4
2018-01-10T13:03:08.506Z,28.5
2018-01-10T13:04:06.183Z,28.5
2018-01-10T13:05:07.011Z,28.6
2018-01-10T13:06:07.394Z,28.6
2018-01-10T13:07:06.483Z,28.6
2018-01-10T13:08:06.557Z,28.6
2018-01-10T13:09:06.711Z,28.7
2018-01-10T13:10:08.786Z,28.7
2018-01-10T13:11:06.837Z,28.7
2018-01-10T13:12:06.675Z,28.7
2018-01-10T13:13:07.604Z,28.7
2018-01-10T13:14:07.202Z,28.8
2018-01-10T13:15:07.111Z,28.8
2018-01-10T13:16:06.818Z,28.8
2018-01-10T13:17:06.754Z,28.9
2018-01-10T13:18:09.017Z,29
2018-01-10T13:19:09.453Z,29
2018-01-10T13:20:07.067Z,29
2018-01-10T13:21:06.902Z,29
2018-01-10T13:22:09.085Z,29
2018-01-10T13:23:09.216Z,29